createdAt,value
2017-10-16T00:00:40.517Z,12.20
2017-10-16T00:03:07.981Z,15.80
2017-10-16T00:05:35.470Z,15.93
2017-10-16T00:08:02.921Z,13.30
2017-10-16T00:10:30.388Z,12.10
2017-10-16T00:12:57.865Z,12.30
2017-10-16T00:15:25.726Z,14.43
2017-10-16T00:17:53.181Z,12.73
2017-10-16T00:20:21.062Z,14.30
2017-10-16T00:22:48.906Z,13.63
2017-10-16T00:25:16.766Z,12.70
2017-10-16T00:27:44.250Z,12.23
2017-10-16T00:30:12.097Z,12.50
2017-10-16T00:32:39.954Z,11.57
2017-10-16T00:35:07.541Z,12.43
2017-10-16T00:37:35.045Z,11.40
2017-10-16T00:40:02.507Z,14.43
2017-10-16T00:42:29.961Z,16.37
2017-10-16T00:44:57.619Z,18.50
2017-10-16T00:47:25.086Z,18.73
2017-10-16T00:49:52.537Z,14.17
2017-10-16T00:52:19.993Z,14.30
2017-10-16T00:54:47.460Z,15.20
2017-10-16T00:57:14.950Z,15.73
2017-10-16T00:59:42.421Z,14.90
2017-10-16T01:02:09.876Z,13.70
2017-10-16T01:04:37.329Z,12.00
2017-10-16T01:07:04.795Z,15.80
2017-10-16T01:09:32.277Z,13.63
2017-10-16T01:11:59.738Z,18.40
2017-10-16T01:14:27.189Z,15.30
2017-10-16T01:16:54.854Z,13.63
2017-10-16T01:19:22.309Z,15.63
2017-10-16T01:21:49.770Z,13.13
2017-10-16T01:24:17.260Z,14.00
2017-10-16T01:26:44.729Z,16.77
2017-10-16T01:29:12.191Z,16.33
2017-10-16T01:31:39.681Z,13.87
2017-10-16T01:34:07.149Z,14.07
2017-10-16T01:36:35.003Z,13.23
2017-10-16T01:39:02.666Z,14.57
2017-10-16T01:41:30.117Z,16.20
2017-10-16T01:43:57.578Z,13.63
2017-10-16T01:46:25.067Z,15.77
2017-10-16T01:48:52.542Z,12.63
2017-10-16T01:51:20.003Z,16.80
2017-10-16T01:53:47.509Z,14.03
2017-10-16T01:56:15.374Z,21.50
2017-10-16T01:58:42.834Z,14.20
2017-10-16T02:01:10.694Z,16.47
2017-10-16T02:03:38.145Z,15.00
2017-10-16T02:06:05.896Z,14.60
2017-10-16T02:08:33.346Z,18.57
2017-10-16T02:11:00.799Z,14.10
2017-10-16T02:13:28.567Z,14.07
2017-10-16T02:15:56.027Z,15.00
2017-10-16T02:18:23.498Z,16.70
2017-10-16T02:20:51.371Z,15.63
2017-10-16T02:23:19.254Z,18.33
2017-10-16T02:25:46.735Z,17.23
2017-10-16T02:28:14.190Z,17.40
2017-10-16T02:30:41.663Z,22.33
2017-10-16T02:33:09.341Z,20.50
2017-10-16T02:35:36.812Z,20.07
2017-10-16T02:38:04.673Z,17.43
2017-10-16T02:40:32.146Z,20.30
2017-10-16T02:43:00.014Z,21.33
2017-10-16T02:45:27.480Z,19.00
2017-10-16T02:47:55.049Z,17.93
2017-10-16T02:50:22.760Z,16.30
2017-10-16T02:52:50.256Z,17.57
2017-10-16T02:55:17.726Z,16.73
2017-10-16T02:57:45.308Z,19.37
2017-10-16T03:00:12.771Z,19.30
2017-10-16T03:02:40.237Z,19.10
2017-10-16T03:05:07.735Z,22.27
2017-10-16T03:07:35.195Z,18.33
2017-10-16T03:10:02.662Z,19.40
2017-10-16T03:12:30.176Z,19.90
2017-10-16T03:14:58.035Z,19.47
2017-10-16T03:17:25.495Z,19.00
2017-10-16T03:19:53.391Z,22.00
2017-10-16T03:22:21.444Z,23.30
2017-10-16T03:24:49.298Z,20.70
2017-10-16T03:27:17.185Z,19.53
2017-10-16T03:29:44.646Z,18.83
2017-10-16T03:32:12.114Z,21.10
2017-10-16T03:34:39.595Z,19.53
2017-10-16T03:37:09.564Z,19.87
2017-10-16T03:39:37.023Z,21.40
2017-10-16T03:42:04.520Z,21.07
2017-10-16T03:44:31.995Z,22.03
2017-10-16T03:46:59.454Z,20.30
2017-10-16T03:49:26.915Z,21.60
2017-10-16T03:51:54.771Z,21.63
2017-10-16T03:54:22.657Z,26.27
2017-10-16T03:56:50.511Z,23.90
2017-10-16T03:59:18.374Z,24.17
2017-10-16T04:01:46.277Z,24.53
2017-10-16T04:04:13.735Z,23.60
2017-10-16T04:06:41.194Z,24.90
2017-10-16T04:09:08.700Z,26.10
2017-10-16T04:11:36.160Z,25.80
2017-10-16T04:14:04.834Z,24.70
2017-10-16T04:16:32.487Z,26.00
2017-10-16T04:18:59.950Z,26.37
2017-10-16T04:21:27.815Z,22.93
2017-10-16T04:23:55.711Z,24.80
2017-10-16T04:26:23.163Z,24.23
2017-10-16T04:28:50.632Z,25.73
2017-10-16T04:31:18.108Z,30.50
2017-10-16T04:33:45.567Z,25.57
2017-10-16T04:36:13.027Z,27.80
2017-10-16T04:38:41.027Z,25.53
2017-10-16T04:41:08.484Z,27.77
2017-10-16T04:43:36.346Z,26.27
2017-10-16T04:46:04.260Z,29.37
2017-10-16T04:48:31.727Z,27.10
2017-10-16T04:50:59.192Z,30.03
2017-10-16T04:53:26.675Z,28.83
2017-10-16T04:55:54.143Z,29.17
2017-10-16T04:58:22.017Z,25.80
2017-10-16T05:00:50.264Z,27.37
2017-10-16T05:03:17.726Z,28.57
2017-10-16T05:05:45.628Z,28.17
2017-10-16T05:08:13.450Z,28.53
2017-10-16T05:10:40.915Z,27.70
2017-10-16T05:13:08.377Z,32.00
2017-10-16T05:15:36.238Z,30.70
2017-10-16T05:18:04.098Z,28.93
2017-10-16T05:20:32.010Z,26.30
2017-10-16T05:22:59.503Z,27.47
2017-10-16T05:25:26.967Z,25.97
2017-10-16T05:27:54.623Z,30.47
2017-10-16T05:30:22.081Z,27.83
2017-10-16T05:32:49.542Z,27.27
2017-10-16T05:35:17.703Z,32.57
2017-10-16T05:37:45.163Z,34.83
2017-10-16T05:40:12.858Z,29.57
2017-10-16T05:42:40.326Z,32.63
2017-10-16T05:45:07.796Z,29.97
2017-10-16T05:47:35.286Z,30.23
2017-10-16T05:50:02.759Z,30.43
2017-10-16T05:52:30.611Z,30.90
2017-10-16T05:54:58.098Z,30.07
2017-10-16T05:57:25.560Z,36.27
2017-10-16T05:59:53.030Z,35.13
2017-10-16T06:02:20.535Z,28.00
2017-10-16T06:04:47.993Z,33.73
2017-10-16T06:07:15.452Z,34.37
2017-10-16T06:09:43.216Z,32.83
2017-10-16T06:12:10.669Z,32.30
2017-10-16T06:14:38.126Z,35.87
2017-10-16T06:17:06.003Z,31.97
2017-10-16T06:19:33.859Z,34.73
2017-10-16T06:22:01.723Z,32.83
2017-10-16T06:24:29.584Z,34.87
2017-10-16T06:26:57.043Z,32.93
2017-10-16T06:29:24.523Z,37.60
2017-10-16T06:31:51.996Z,35.90
2017-10-16T06:34:19.454Z,31.63
2017-10-16T06:36:47.151Z,33.63
2017-10-16T06:39:14.616Z,32.70
2017-10-16T06:41:42.092Z,42.47
2017-10-16T06:44:09.601Z,39.50
2017-10-16T06:46:37.054Z,31.20
2017-10-16T06:49:04.523Z,34.90
2017-10-16T06:51:32.396Z,34.60
2017-10-16T06:54:00.282Z,36.97
2017-10-16T06:56:28.245Z,36.27
2017-10-16T06:58:55.738Z,31.93
2017-10-16T07:01:23.203Z,34.23
2017-10-16T07:03:50.668Z,31.50
2017-10-16T07:06:18.169Z,33.93
2017-10-16T07:08:46.030Z,39.10
2017-10-16T07:11:13.966Z,31.73
2017-10-16T07:13:41.456Z,32.27
2017-10-16T07:16:09.313Z,34.43
2017-10-16T07:18:36.776Z,31.10
2017-10-16T07:21:04.646Z,32.77
2017-10-16T07:23:32.618Z,34.90
2017-10-16T07:26:00.478Z,30.37
2017-10-16T07:28:28.336Z,37.73
2017-10-16T07:30:55.850Z,32.27
2017-10-16T07:33:23.396Z,31.13
2017-10-16T07:35:50.868Z,33.60
2017-10-16T07:38:18.591Z,31.03
2017-10-16T07:40:46.058Z,30.40
2017-10-16T07:43:13.519Z,31.73
2017-10-16T07:45:41.019Z,32.70
2017-10-16T07:48:08.480Z,39.10
2017-10-16T07:50:35.936Z,32.97
2017-10-16T07:53:03.687Z,32.57
2017-10-16T07:55:31.143Z,33.03
2017-10-16T07:57:58.600Z,33.03
2017-10-16T08:00:26.103Z,32.90
2017-10-16T08:02:53.567Z,29.10
2017-10-16T08:05:21.030Z,27.50
2017-10-16T08:07:48.498Z,30.93
2017-10-16T08:10:15.959Z,32.80
2017-10-16T08:12:43.450Z,29.20
2017-10-16T08:15:11.312Z,33.37
2017-10-16T08:17:38.771Z,32.30
2017-10-16T08:20:06.675Z,37.07
2017-10-16T08:22:34.137Z,35.00
2017-10-16T08:25:01.610Z,31.87
2017-10-16T08:27:29.087Z,31.93
2017-10-16T08:29:56.543Z,34.93
2017-10-16T08:32:24.003Z,34.60
2017-10-16T08:34:52.143Z,36.20
2017-10-16T08:37:19.611Z,28.77
2017-10-16T08:39:47.131Z,26.70
2017-10-16T08:42:14.633Z,30.27
2017-10-16T08:44:42.232Z,29.00
2017-10-16T08:47:09.695Z,29.20
2017-10-16T08:49:37.188Z,30.30
2017-10-16T08:52:04.653Z,38.90
2017-10-16T08:54:32.118Z,28.13
2017-10-16T08:57:00.004Z,32.00
2017-10-16T08:59:27.463Z,33.43
2017-10-16T09:01:55.351Z,28.47
2017-10-16T09:04:22.844Z,25.87
2017-10-16T09:06:50.321Z,25.27
2017-10-16T09:09:17.780Z,33.77
2017-10-16T09:11:45.667Z,27.07
2017-10-16T09:14:13.130Z,28.53
2017-10-16T09:16:40.608Z,26.63
2017-10-16T09:19:08.083Z,27.00
2017-10-16T09:21:35.550Z,29.33
2017-10-16T09:24:03.052Z,25.10
2017-10-16T09:26:30.507Z,26.53
2017-10-16T09:28:57.987Z,27.00
2017-10-16T09:31:25.472Z,26.67
2017-10-16T09:33:52.926Z,26.70
2017-10-16T09:36:20.392Z,24.23
2017-10-16T09:38:48.275Z,24.90
2017-10-16T09:41:16.136Z,28.90
2017-10-16T09:43:43.990Z,26.17
2017-10-16T09:46:11.507Z,23.90
2017-10-16T09:48:38.971Z,24.10
2017-10-16T09:51:06.454Z,33.70
2017-10-16T09:53:33.931Z,28.43
2017-10-16T09:56:01.792Z,27.50
2017-10-16T09:58:29.263Z,24.47
2017-10-16T10:00:56.762Z,23.70
2017-10-16T10:03:24.227Z,25.90
2017-10-16T10:05:51.696Z,24.87
2017-10-16T10:08:19.599Z,25.40
2017-10-16T10:10:47.068Z,21.97
2017-10-16T10:13:14.523Z,24.90
2017-10-16T10:15:42.019Z,25.53
2017-10-16T10:18:09.482Z,21.80
2017-10-16T10:20:36.940Z,20.60
2017-10-16T10:23:04.824Z,24.47
2017-10-16T10:25:32.684Z,24.00
2017-10-16T10:28:00.539Z,21.27
2017-10-16T10:30:28.667Z,20.83
2017-10-16T10:32:56.131Z,21.77
2017-10-16T10:35:23.597Z,25.87
2017-10-16T10:37:51.363Z,18.77
2017-10-16T10:40:18.831Z,20.17
2017-10-16T10:42:46.297Z,19.60
2017-10-16T10:45:14.160Z,21.90
2017-10-16T10:47:42.029Z,19.10
2017-10-16T10:50:09.930Z,19.63
2017-10-16T10:52:37.396Z,22.03
2017-10-16T10:55:04.858Z,22.60
2017-10-16T10:57:32.340Z,21.90
2017-10-16T10:59:59.804Z,20.40
2017-10-16T11:02:27.267Z,19.57
2017-10-16T11:04:55.251Z,20.37
2017-10-16T11:07:22.716Z,21.97
2017-10-16T11:09:50.177Z,21.57
2017-10-16T11:12:17.671Z,23.87
2017-10-16T11:14:45.132Z,20.03
2017-10-16T11:17:12.594Z,20.17
2017-10-16T11:19:40.071Z,20.80
2017-10-16T11:22:07.930Z,20.23
2017-10-16T11:24:35.800Z,23.17
2017-10-16T11:27:03.776Z,19.10
2017-10-16T11:29:31.638Z,21.47
2017-10-16T11:31:59.498Z,20.57
2017-10-16T11:34:27.403Z,19.57
2017-10-16T11:36:54.863Z,21.33
2017-10-16T11:39:22.334Z,20.90
2017-10-16T11:41:49.844Z,19.93
2017-10-16T11:44:17.305Z,18.53
2017-10-16T11:46:44.764Z,20.40
2017-10-16T11:49:12.791Z,20.40
2017-10-16T11:51:40.247Z,22.23
2017-10-16T11:54:07.711Z,20.00
2017-10-16T11:56:35.211Z,23.37
2017-10-16T11:59:02.666Z,17.70
2017-10-16T12:01:30.131Z,18.20
2017-10-16T12:03:57.642Z,17.97
2017-10-16T12:06:25.506Z,17.80
2017-10-16T12:08:53.380Z,19.37
2017-10-16T12:11:21.283Z,18.63
2017-10-16T12:13:48.738Z,19.03
2017-10-16T12:16:16.208Z,19.47
2017-10-16T12:18:43.687Z,20.73
2017-10-16T12:21:11.164Z,19.20
2017-10-16T12:23:39.042Z,17.40
2017-10-16T12:26:06.512Z,24.23
2017-10-16T12:28:33.971Z,18.63
2017-10-16T12:31:01.780Z,18.33
2017-10-16T12:33:29.648Z,18.73
2017-10-16T12:35:57.107Z,18.97
2017-10-16T12:38:24.685Z,16.60
2017-10-16T12:40:52.540Z,19.20
2017-10-16T12:43:20.403Z,19.30
2017-10-16T12:45:48.322Z,17.43
2017-10-16T12:48:15.783Z,16.73
2017-10-16T12:50:43.248Z,18.57
2017-10-16T12:53:10.745Z,22.97
2017-10-16T12:55:38.595Z,20.20
2017-10-16T12:58:06.450Z,20.47
2017-10-16T13:00:34.343Z,18.50
2017-10-16T13:03:01.808Z,18.40
2017-10-16T13:05:38.463Z,18.63
2017-10-16T13:08:06.314Z,18.33
2017-10-16T13:10:34.174Z,17.30
2017-10-16T13:13:01.674Z,18.20
2017-10-16T13:15:29.151Z,20.13
2017-10-16T13:17:56.606Z,16.17
2017-10-16T13:20:24.091Z,17.40
2017-10-16T13:22:51.552Z,17.97
2017-10-16T13:25:19.014Z,18.77
2017-10-16T13:27:46.907Z,16.90
2017-10-16T13:30:14.380Z,17.30
2017-10-16T13:32:41.845Z,16.80
2017-10-16T13:35:09.352Z,16.53
2017-10-16T13:37:36.843Z,15.73
2017-10-16T13:40:04.299Z,16.50
2017-10-16T13:42:31.811Z,17.20
2017-10-16T13:44:59.267Z,16.10
2017-10-16T13:47:27.126Z,17.63
2017-10-16T13:49:54.622Z,16.73
2017-10-16T13:52:22.081Z,16.07
2017-10-16T13:54:49.537Z,16.20
2017-10-16T13:57:17.342Z,15.40
2017-10-16T13:59:44.807Z,16.90
2017-10-16T14:02:12.676Z,18.10
2017-10-16T14:04:40.567Z,18.20
2017-10-16T14:07:14.161Z,15.73
2017-10-16T14:09:42.296Z,15.20
2017-10-16T14:12:09.763Z,15.63
2017-10-16T14:14:37.231Z,15.63
2017-10-16T14:17:05.140Z,15.30
2017-10-16T14:19:32.607Z,17.30
2017-10-16T14:22:00.070Z,16.07
2017-10-16T14:24:27.562Z,21.40
2017-10-16T14:26:55.410Z,25.07
2017-10-16T14:29:24.453Z,18.70
2017-10-16T14:31:51.920Z,17.07
2017-10-16T14:34:19.387Z,17.43
2017-10-16T14:36:46.874Z,15.80
2017-10-16T14:39:14.336Z,16.63
2017-10-16T14:41:42.201Z,17.20
2017-10-16T14:44:09.779Z,16.97
2017-10-16T14:46:37.247Z,17.07
2017-10-16T14:49:04.719Z,16.43
2017-10-16T14:51:32.211Z,19.67
2017-10-16T14:53:59.674Z,20.20
2017-10-16T14:56:27.134Z,19.33
2017-10-16T14:58:54.999Z,20.60
2017-10-16T15:01:24.803Z,19.20
2017-10-16T15:03:52.663Z,20.00
2017-10-16T15:06:20.123Z,17.43
2017-10-16T15:08:47.696Z,18.20
2017-10-16T15:11:15.566Z,18.27
2017-10-16T15:13:43.427Z,20.63
2017-10-16T15:16:11.286Z,19.83
2017-10-16T15:18:39.167Z,19.80
2017-10-16T15:21:06.643Z,21.00
2017-10-16T15:23:34.107Z,25.77
2017-10-16T15:26:01.584Z,18.13
2017-10-16T15:28:29.047Z,21.70
2017-10-16T15:30:56.515Z,20.00
2017-10-16T15:33:24.004Z,25.20
2017-10-16T15:35:51.475Z,17.90
2017-10-16T15:38:18.929Z,23.30
2017-10-16T15:40:46.391Z,17.10
2017-10-16T15:43:13.859Z,18.33
2017-10-16T15:45:41.645Z,17.50
2017-10-16T15:48:09.107Z,25.70
2017-10-16T15:50:36.571Z,20.90
2017-10-16T15:53:04.080Z,18.20
2017-10-16T15:55:31.541Z,24.50
2017-10-16T15:58:03.455Z,25.87
2017-10-16T16:00:31.319Z,21.53
2017-10-16T16:02:59.185Z,28.10
2017-10-16T16:05:27.229Z,25.80
2017-10-16T16:07:54.691Z,28.13
2017-10-16T16:10:22.567Z,28.20
2017-10-16T16:12:50.460Z,25.80
2017-10-16T16:15:17.928Z,26.10
2017-10-16T16:17:45.392Z,24.60
2017-10-16T16:20:12.987Z,24.90
2017-10-16T16:22:40.460Z,23.33
2017-10-16T16:25:08.309Z,24.17
2017-10-16T16:27:35.813Z,23.83
2017-10-16T16:30:03.269Z,27.37
2017-10-16T16:32:30.731Z,26.60
2017-10-16T16:34:58.211Z,27.80
2017-10-16T16:37:25.672Z,30.70
2017-10-16T16:39:53.144Z,29.40
2017-10-16T16:42:20.611Z,25.70
2017-10-16T16:44:48.472Z,27.53
2017-10-16T16:47:16.467Z,24.90
2017-10-16T16:49:43.928Z,25.63
2017-10-16T16:52:11.389Z,27.70
2017-10-16T16:54:38.850Z,25.23
2017-10-16T16:57:06.308Z,27.67
2017-10-16T16:59:33.771Z,27.70
2017-10-16T17:02:01.252Z,31.97
2017-10-16T17:04:28.742Z,26.00
2017-10-16T17:06:56.605Z,30.20
2017-10-16T17:09:24.455Z,24.67
2017-10-16T17:11:53.105Z,22.80
2017-10-16T17:14:20.571Z,31.50
2017-10-16T17:16:48.046Z,28.13
2017-10-16T17:19:15.529Z,23.57
2017-10-16T17:21:42.999Z,22.63
2017-10-16T17:24:10.468Z,29.07
2017-10-16T17:26:37.955Z,25.90
2017-10-16T17:29:05.412Z,26.70
2017-10-16T17:31:32.878Z,25.40
2017-10-16T17:34:00.936Z,24.27
2017-10-16T17:36:28.398Z,25.90
2017-10-16T17:38:55.859Z,24.90
2017-10-16T17:41:23.509Z,22.07
2017-10-16T17:43:50.973Z,24.50
2017-10-16T17:46:18.435Z,24.50
2017-10-16T17:48:46.321Z,23.23
2017-10-16T17:51:13.775Z,20.70
2017-10-16T17:53:41.248Z,21.77
2017-10-16T17:56:08.950Z,22.33
2017-10-16T17:58:36.426Z,28.33
2017-10-16T18:01:04.287Z,21.53
2017-10-16T18:03:32.181Z,27.23
2017-10-16T18:05:59.663Z,20.83
2017-10-16T18:08:27.142Z,26.00
2017-10-16T18:10:54.808Z,20.07
2017-10-16T18:13:22.276Z,19.63
2017-10-16T18:15:49.748Z,25.17
2017-10-16T18:18:17.622Z,24.07
2017-10-16T18:20:45.077Z,23.03
2017-10-16T18:23:12.543Z,27.93
2017-10-16T18:25:40.094Z,23.77
2017-10-16T18:28:07.565Z,24.00
2017-10-16T18:30:35.148Z,27.27
2017-10-16T18:33:02.610Z,28.20
2017-10-16T18:35:30.095Z,38.67
2017-10-16T18:37:57.971Z,28.87
2017-10-16T18:40:25.487Z,30.87
2017-10-16T18:42:52.961Z,25.20
2017-10-16T18:45:20.462Z,26.10
2017-10-16T18:47:47.935Z,23.50
2017-10-16T18:50:15.410Z,28.30
2017-10-16T18:52:43.001Z,25.43
2017-10-16T18:55:10.862Z,28.27
2017-10-16T18:57:38.329Z,35.03
2017-10-16T19:00:06.211Z,27.17
2017-10-16T19:02:33.681Z,28.03
2017-10-16T19:05:01.156Z,25.17
2017-10-16T19:07:28.664Z,25.73
2017-10-16T19:09:56.536Z,31.70
2017-10-16T19:12:23.999Z,26.77
2017-10-16T19:14:51.491Z,25.90
2017-10-16T19:17:18.966Z,28.43
2017-10-16T19:19:46.451Z,26.03
2017-10-16T19:22:14.337Z,27.60
2017-10-16T19:24:41.943Z,28.83
2017-10-16T19:27:09.410Z,26.27
2017-10-16T19:29:36.912Z,34.07
2017-10-16T19:32:04.418Z,23.20
2017-10-16T19:34:31.899Z,34.07
2017-10-16T19:36:59.400Z,27.97
2017-10-16T19:39:26.935Z,27.57
2017-10-16T19:41:54.461Z,30.53
2017-10-16T19:44:22.418Z,27.60
2017-10-16T19:46:50.342Z,26.97
2017-10-16T19:49:17.854Z,26.47
2017-10-16T19:51:45.398Z,28.77
2017-10-16T19:54:12.929Z,28.03
2017-10-16T19:56:40.411Z,29.70
2017-10-16T19:59:08.390Z,33.47
2017-10-16T20:01:36.451Z,33.50
2017-10-16T20:04:03.913Z,26.00
2017-10-16T20:06:31.832Z,26.27
2017-10-16T20:08:59.351Z,31.23
2017-10-16T20:11:27.225Z,28.17
2017-10-16T20:13:54.780Z,27.27
2017-10-16T20:19:03.464Z,31.20
2017-10-16T20:21:31.712Z,23.00
2017-10-16T20:23:59.183Z,26.77
2017-10-16T20:26:26.663Z,26.47
2017-10-16T20:28:54.318Z,26.43
2017-10-16T20:31:22.093Z,25.57
2017-10-16T20:33:49.986Z,26.33
2017-10-16T20:36:17.460Z,26.93
2017-10-16T20:38:45.167Z,26.80
2017-10-16T20:41:12.722Z,29.70
2017-10-16T20:43:40.703Z,31.97
2017-10-16T20:46:08.579Z,25.17
2017-10-16T20:48:43.800Z,26.57
2017-10-16T20:51:11.684Z,25.00
2017-10-16T20:53:39.161Z,27.07
2017-10-16T20:56:06.651Z,34.73
2017-10-16T20:58:34.125Z,23.33
2017-10-16T21:01:01.582Z,30.57
2017-10-16T21:03:29.448Z,32.53
2017-10-16T21:05:57.317Z,23.63
2017-10-16T21:08:25.189Z,24.13
2017-10-16T21:10:53.228Z,27.70
2017-10-16T21:13:20.752Z,27.80
2017-10-16T21:15:48.400Z,29.73
2017-10-16T21:18:15.902Z,26.43
2017-10-16T21:20:43.366Z,27.03
2017-10-16T21:23:10.848Z,25.20
2017-10-16T21:25:38.583Z,25.30
2017-10-16T21:28:06.055Z,27.10
2017-10-16T21:30:33.567Z,30.13
2017-10-16T21:33:01.072Z,25.13
2017-10-16T21:35:28.972Z,27.20
2017-10-16T21:37:56.531Z,20.93
2017-10-16T21:40:24.159Z,30.57
2017-10-16T21:42:52.444Z,25.30
2017-10-16T21:45:19.951Z,27.20
2017-10-16T21:47:47.839Z,23.73
2017-10-16T21:50:16.391Z,22.67
2017-10-16T21:52:44.257Z,24.10
2017-10-16T21:55:12.310Z,29.50
2017-10-16T21:57:39.856Z,25.93
2017-10-16T22:00:07.421Z,27.23
2017-10-16T22:02:35.508Z,23.23
2017-10-16T22:05:03.067Z,26.80
2017-10-16T22:07:30.619Z,23.83
2017-10-16T22:09:58.531Z,21.50
2017-10-16T22:12:26.386Z,27.13
2017-10-16T22:14:53.913Z,23.53
2017-10-16T22:17:21.403Z,20.83
2017-10-16T22:19:49.259Z,20.27
2017-10-16T22:22:17.187Z,18.87
2017-10-16T22:24:44.733Z,19.40
2017-10-16T22:27:12.245Z,20.23
2017-10-16T22:29:40.147Z,22.17
2017-10-16T22:32:08.627Z,27.43
2017-10-16T22:34:36.077Z,24.83
2017-10-16T22:37:03.893Z,18.47
2017-10-16T22:39:31.888Z,20.57
2017-10-16T22:41:59.376Z,21.20
2017-10-16T22:44:26.874Z,20.73
2017-10-16T22:46:54.387Z,19.83
2017-10-16T22:49:21.850Z,21.83
2017-10-16T22:51:49.364Z,22.20
2017-10-16T22:54:29.235Z,24.87
2017-10-16T22:56:56.727Z,20.80
2017-10-16T22:59:25.280Z,19.00
2017-10-16T23:01:52.759Z,18.43
2017-10-16T23:04:20.568Z,19.20
2017-10-16T23:06:48.516Z,19.53
2017-10-16T23:09:16.454Z,27.73
2017-10-16T23:11:44.048Z,18.23
2017-10-16T23:14:12.487Z,21.17
2017-10-16T23:16:41.469Z,19.10
2017-10-16T23:19:09.000Z,19.97
2017-10-16T23:21:36.513Z,18.40
2017-10-16T23:24:04.003Z,20.10
2017-10-16T23:26:32.542Z,22.50
2017-10-16T23:29:00.091Z,19.20
2017-10-16T23:31:27.552Z,19.53
2017-10-16T23:33:55.064Z,17.00
2017-10-16T23:36:22.528Z,19.40
2017-10-16T23:38:49.995Z,17.07
2017-10-16T23:41:17.504Z,19.67
2017-10-16T23:43:46.883Z,15.40
2017-10-16T23:46:14.331Z,14.30
2017-10-16T23:48:41.799Z,23.23
2017-10-16T23:51:09.263Z,16.50
2017-10-16T23:53:37.127Z,14.10
2017-10-16T23:56:04.992Z,17.90
2017-10-16T23:58:32.855Z,20.00
